KENV/ENV METAR and TAF weather

Enter ICAO airport designator
Station Type Date Time Source
KENV METAR 2020/01/22 14:56 UTC NOAA

KENV 221456Z AUTO 28005KT 10SM SCT075 M02/M04 A3012 RMK AO2 SLP224 T10171039 53020 FZRANO


Station Type Date Time Source
KENV Decoded METAR 2020/01/22 14:56 UTC NOAA

Wendover / Air Force Auxillary Field, UT, United States (KENV) 40-44N 114-02W 1292M
Jan 22, 2020 - 09:56 AM EST / 2020.01.22 1456 UTC
Wind: from the W (280 degrees) at 6 MPH (5 KT):0
Visibility: 10 mile(s):0
Sky conditions: partly cloudy
Temperature: 28.9 F (-1.7 C)
Windchill: 23 F (-5 C):1
Dew Point: 25.0 F (-3.9 C)
Relative Humidity: 84%
Pressure (altimeter): 30.12 in. Hg (1019 hPa)
Pressure tendency: 0.06 inches (2.0 hPa) higher than three hours ago
ob: KENV 221456Z AUTO 28005KT 10SM SCT075 M02/M04 A3012 RMK AO2 SLP224 T10171039 53020 FZRANO
cycle: 15

Station Type Date Time Source
KENV TAF 2020/01/22 12:39 UTC NOAA

TAF KENV 221137Z 2212/2312 VRB03KT P6SM BKN050
FM230000 27005KT P6SM BKN120

Example: see airport list